VTCC/CNX METAR and TAF weather

Enter ICAO airport designator
Station Type Date Time Source
VTCC METAR 2021/03/04 21:30 UTC NOAA

VTCC 042130Z VRB02KT 9000 FEW010 21/16 Q1012 NOSIG


Station Type Date Time Source
VTCC Decoded METAR 2021/03/04 21:30 UTC NOAA

Chiang Mai, Thailand (VTCC) 18-47N 098-59E 314M
Mar 04, 2021 - 04:30 PM EST / 2021.03.04 2130 UTC
Wind: Variable at 2 MPH (2 KT):0
Visibility: 5 mile(s):0
Sky conditions: mostly clear
Temperature: 69 F (21 C)
Dew Point: 60 F (16 C)
Relative Humidity: 73%
Pressure (altimeter): 29.88 in. Hg (1012 hPa)
ob: VTCC 042130Z VRB02KT 9000 FEW010 21/16 Q1012 NOSIG
cycle: 21

Station Type Date Time Source
VTCC TAF 2021/03/04 18:36 UTC NOAA

TAF VTCC 041700Z 0418/0524 17005KT 9000 FEW035

Example: see airport list